sensor_id;sensor_type;location;lat;lon;timestamp;P1;durP1;ratioP1;P2;durP2;ratioP2
62654;SDS011;48717;55.556;37.816;2023-12-28T00:01:31;12.32;;;5.68;;
62654;SDS011;48717;55.556;37.816;2023-12-28T00:03:58;11.68;;;5.55;;
62654;SDS011;48717;55.556;37.816;2023-12-28T00:06:27;9.68;;;4.90;;
62654;SDS011;48717;55.556;37.816;2023-12-28T00:08:54;10.07;;;4.90;;
62654;SDS011;48717;55.556;37.816;2023-12-28T00:11:30;10.50;;;4.55;;
62654;SDS011;48717;55.556;37.816;2023-12-28T00:13:57;10.05;;;4.28;;
62654;SDS011;48717;55.556;37.816;2023-12-28T00:16:25;8.52;;;4.07;;
62654;SDS011;48717;55.556;37.816;2023-12-28T00:18:52;7.65;;;3.95;;
62654;SDS011;48717;55.556;37.816;2023-12-28T00:21:20;7.47;;;3.60;;
62654;SDS011;48717;55.556;37.816;2023-12-28T00:23:47;7.70;;;4.20;;
62654;SDS011;48717;55.556;37.816;2023-12-28T00:26:14;9.52;;;4.30;;
62654;SDS011;48717;55.556;37.816;2023-12-28T00:28:57;8.32;;;3.97;;
62654;SDS011;48717;55.556;37.816;2023-12-28T00:31:24;7.47;;;3.28;;
62654;SDS011;48717;55.556;37.816;2023-12-28T00:33:52;7.50;;;3.97;;
62654;SDS011;48717;55.556;37.816;2023-12-28T00:36:19;7.43;;;3.67;;
62654;SDS011;48717;55.556;37.816;2023-12-28T00:38:48;10.75;;;4.80;;
62654;SDS011;48717;55.556;37.816;2023-12-28T00:41:15;6.00;;;3.53;;
62654;SDS011;48717;55.556;37.816;2023-12-28T00:43:42;12.77;;;5.82;;
62654;SDS011;48717;55.556;37.816;2023-12-28T00:46:09;8.65;;;4.13;;
62654;SDS011;48717;55.556;37.816;2023-12-28T00:48:37;12.52;;;4.43;;
62654;SDS011;48717;55.556;37.816;2023-12-28T00:51:07;8.32;;;4.60;;
62654;SDS011;48717;55.556;37.816;2023-12-28T00:53:34;8.57;;;3.28;;
62654;SDS011;48717;55.556;37.816;2023-12-28T00:56:01;6.10;;;3.67;;
62654;SDS011;48717;55.556;37.816;2023-12-28T00:58:29;5.80;;;2.65;;
62654;SDS011;48717;55.556;37.816;2023-12-28T01:00:57;7.43;;;3.85;;
62654;SDS011;48717;55.556;37.816;2023-12-28T01:03:24;6.65;;;3.42;;
62654;SDS011;48717;55.556;37.816;2023-12-28T01:05:52;6.22;;;3.30;;
62654;SDS011;48717;55.556;37.816;2023-12-28T01:08:20;5.32;;;3.13;;
62654;SDS011;48717;55.556;37.816;2023-12-28T01:10:48;5.60;;;3.08;;
62654;SDS011;48717;55.556;37.816;2023-12-28T01:13:15;6.22;;;3.55;;
62654;SDS011;48717;55.556;37.816;2023-12-28T01:15:43;7.28;;;4.05;;
62654;SDS011;48717;55.556;37.816;2023-12-28T01:18:11;8.57;;;4.20;;
62654;SDS011;48717;55.556;37.816;2023-12-28T01:20:38;9.32;;;4.45;;
62654;SDS011;48717;55.556;37.816;2023-12-28T01:23:05;14.57;;;6.22;;
62654;SDS011;48717;55.556;37.816;2023-12-28T01:25:33;7.00;;;3.83;;
62654;SDS011;48717;55.556;37.816;2023-12-28T01:28:05;9.95;;;4.22;;
62654;SDS011;48717;55.556;37.816;2023-12-28T01:30:32;10.73;;;5.32;;
62654;SDS011;48717;55.556;37.816;2023-12-28T01:33:02;6.70;;;3.60;;
62654;SDS011;48717;55.556;37.816;2023-12-28T01:35:29;6.45;;;3.42;;
62654;SDS011;48717;55.556;37.816;2023-12-28T01:37:56;6.30;;;3.45;;
62654;SDS011;48717;55.556;37.816;2023-12-28T01:40:25;5.68;;;3.40;;
62654;SDS011;48717;55.556;37.816;2023-12-28T01:42:52;6.38;;;3.38;;
62654;SDS011;48717;55.556;37.816;2023-12-28T01:45:20;7.35;;;3.65;;
62654;SDS011;48717;55.556;37.816;2023-12-28T01:47:47;7.40;;;3.47;;
62654;SDS011;48717;55.556;37.816;2023-12-28T01:50:15;5.85;;;2.95;;
62654;SDS011;48717;55.556;37.816;2023-12-28T01:52:45;6.65;;;3.67;;
62654;SDS011;48717;55.556;37.816;2023-12-28T01:55:15;10.93;;;3.90;;
62654;SDS011;48717;55.556;37.816;2023-12-28T01:57:44;5.28;;;2.65;;
62654;SDS011;48717;55.556;37.816;2023-12-28T02:00:12;7.88;;;3.63;;
62654;SDS011;48717;55.556;37.816;2023-12-28T02:02:41;10.32;;;4.38;;
62654;SDS011;48717;55.556;37.816;2023-12-28T02:05:10;6.15;;;3.35;;
62654;SDS011;48717;55.556;37.816;2023-12-28T02:07:39;7.95;;;3.70;;
62654;SDS011;48717;55.556;37.816;2023-12-28T02:10:07;7.97;;;3.90;;
62654;SDS011;48717;55.556;37.816;2023-12-28T02:12:35;6.28;;;3.33;;
62654;SDS011;48717;55.556;37.816;2023-12-28T02:15:03;7.63;;;3.80;;
62654;SDS011;48717;55.556;37.816;2023-12-28T02:17:38;11.38;;;3.60;;
62654;SDS011;48717;55.556;37.816;2023-12-28T02:20:39;9.05;;;3.72;;
62654;SDS011;48717;55.556;37.816;2023-12-28T02:23:10;9.18;;;4.43;;
62654;SDS011;48717;55.556;37.816;2023-12-28T02:25:37;8.73;;;3.78;;
62654;SDS011;48717;55.556;37.816;2023-12-28T02:28:04;8.90;;;4.00;;
62654;SDS011;48717;55.556;37.816;2023-12-28T02:30:32;8.52;;;3.60;;
62654;SDS011;48717;55.556;37.816;2023-12-28T02:33:02;8.27;;;3.80;;
62654;SDS011;48717;55.556;37.816;2023-12-28T02:35:41;8.27;;;3.95;;
62654;SDS011;48717;55.556;37.816;2023-12-28T02:38:11;12.90;;;4.53;;
62654;SDS011;48717;55.556;37.816;2023-12-28T02:40:42;10.23;;;3.85;;
62654;SDS011;48717;55.556;37.816;2023-12-28T02:43:12;12.15;;;4.20;;
62654;SDS011;48717;55.556;37.816;2023-12-28T02:45:39;13.02;;;4.82;;
62654;SDS011;48717;55.556;37.816;2023-12-28T02:48:07;11.57;;;4.97;;
62654;SDS011;48717;55.556;37.816;2023-12-28T02:50:35;9.05;;;4.35;;
62654;SDS011;48717;55.556;37.816;2023-12-28T02:53:03;12.45;;;4.70;;
62654;SDS011;48717;55.556;37.816;2023-12-28T02:55:30;10.07;;;4.57;;
62654;SDS011;48717;55.556;37.816;2023-12-28T02:57:58;11.07;;;3.90;;
62654;SDS011;48717;55.556;37.816;2023-12-28T03:00:28;8.40;;;4.15;;
62654;SDS011;48717;55.556;37.816;2023-12-28T03:02:56;9.45;;;4.70;;
62654;SDS011;48717;55.556;37.816;2023-12-28T03:05:24;8.38;;;4.00;;
62654;SDS011;48717;55.556;37.816;2023-12-28T03:07:51;6.90;;;3.13;;
62654;SDS011;48717;55.556;37.816;2023-12-28T03:10:21;7.43;;;3.63;;
62654;SDS011;48717;55.556;37.816;2023-12-28T03:12:48;10.90;;;4.50;;
62654;SDS011;48717;55.556;37.816;2023-12-28T03:15:17;8.75;;;4.32;;
62654;SDS011;48717;55.556;37.816;2023-12-28T03:17:44;9.55;;;4.03;;
62654;SDS011;48717;55.556;37.816;2023-12-28T03:20:11;8.73;;;3.78;;
62654;SDS011;48717;55.556;37.816;2023-12-28T03:22:39;10.25;;;2.97;;
62654;SDS011;48717;55.556;37.816;2023-12-28T03:25:08;7.07;;;3.85;;
62654;SDS011;48717;55.556;37.816;2023-12-28T03:27:35;9.90;;;4.38;;
62654;SDS011;48717;55.556;37.816;2023-12-28T03:30:02;6.57;;;3.42;;
62654;SDS011;48717;55.556;37.816;2023-12-28T03:32:32;2.58;;;1.85;;
62654;SDS011;48717;55.556;37.816;2023-12-28T03:34:59;8.02;;;3.63;;
62654;SDS011;48717;55.556;37.816;2023-12-28T03:37:28;6.43;;;3.65;;
62654;SDS011;48717;55.556;37.816;2023-12-28T03:39:55;14.60;;;5.45;;
62654;SDS011;48717;55.556;37.816;2023-12-28T03:42:23;11.05;;;4.88;;
62654;SDS011;48717;55.556;37.816;2023-12-28T03:44:51;11.13;;;4.78;;
62654;SDS011;48717;55.556;37.816;2023-12-28T03:47:17;13.07;;;4.78;;
62654;SDS011;48717;55.556;37.816;2023-12-28T03:49:45;6.38;;;3.15;;
62654;SDS011;48717;55.556;37.816;2023-12-28T03:52:12;9.40;;;4.60;;
62654;SDS011;48717;55.556;37.816;2023-12-28T03:54:40;10.88;;;4.55;;
62654;SDS011;48717;55.556;37.816;2023-12-28T03:57:09;9.47;;;4.80;;
62654;SDS011;48717;55.556;37.816;2023-12-28T03:59:39;8.55;;;4.07;;
62654;SDS011;48717;55.556;37.816;2023-12-28T04:02:06;9.30;;;4.88;;
62654;SDS011;48717;55.556;37.816;2023-12-28T04:04:35;10.48;;;4.70;;
62654;SDS011;48717;55.556;37.816;2023-12-28T04:07:03;9.45;;;4.47;;
62654;SDS011;48717;55.556;37.816;2023-12-28T04:09:34;10.82;;;5.32;;
62654;SDS011;48717;55.556;37.816;2023-12-28T04:12:02;6.53;;;3.47;;
62654;SDS011;48717;55.556;37.816;2023-12-28T04:14:29;5.60;;;3.65;;
62654;SDS011;48717;55.556;37.816;2023-12-28T04:16:57;7.00;;;4.00;;
62654;SDS011;48717;55.556;37.816;2023-12-28T04:19:25;7.82;;;4.40;;
62654;SDS011;48717;55.556;37.816;2023-12-28T04:21:52;7.88;;;3.90;;
62654;SDS011;48717;55.556;37.816;2023-12-28T04:24:19;5.63;;;3.28;;
62654;SDS011;48717;55.556;37.816;2023-12-28T04:26:46;6.65;;;3.63;;
62654;SDS011;48717;55.556;37.816;2023-12-28T04:29:15;6.20;;;3.67;;
62654;SDS011;48717;55.556;37.816;2023-12-28T04:31:42;8.38;;;4.47;;
62654;SDS011;48717;55.556;37.816;2023-12-28T04:34:10;9.32;;;4.05;;
62654;SDS011;48717;55.556;37.816;2023-12-28T04:36:41;6.93;;;3.85;;
62654;SDS011;48717;55.556;37.816;2023-12-28T04:39:13;8.25;;;4.03;;
62654;SDS011;48717;55.556;37.816;2023-12-28T04:41:41;8.57;;;4.10;;
62654;SDS011;48717;55.556;37.816;2023-12-28T04:44:08;6.40;;;3.90;;
62654;SDS011;48717;55.556;37.816;2023-12-28T04:46:39;7.95;;;4.03;;
62654;SDS011;48717;55.556;37.816;2023-12-28T04:49:11;8.30;;;4.10;;
62654;SDS011;48717;55.556;37.816;2023-12-28T04:51:43;6.05;;;3.10;;
62654;SDS011;48717;55.556;37.816;2023-12-28T04:54:11;7.38;;;3.70;;
62654;SDS011;48717;55.556;37.816;2023-12-28T04:56:38;11.00;;;4.15;;
62654;SDS011;48717;55.556;37.816;2023-12-28T04:59:06;3.47;;;2.40;;
62654;SDS011;48717;55.556;37.816;2023-12-28T05:01:33;9.88;;;4.18;;
62654;SDS011;48717;55.556;37.816;2023-12-28T05:04:00;8.02;;;4.18;;
62654;SDS011;48717;55.556;37.816;2023-12-28T05:06:28;7.20;;;3.97;;
62654;SDS011;48717;55.556;37.816;2023-12-28T05:08:56;8.43;;;4.50;;
62654;SDS011;48717;55.556;37.816;2023-12-28T05:11:24;7.28;;;4.00;;
62654;SDS011;48717;55.556;37.816;2023-12-28T05:13:53;7.68;;;4.32;;
62654;SDS011;48717;55.556;37.816;2023-12-28T05:16:21;7.93;;;4.25;;
62654;SDS011;48717;55.556;37.816;2023-12-28T05:18:48;7.45;;;3.63;;
62654;SDS011;48717;55.556;37.816;2023-12-28T05:21:15;8.57;;;3.40;;
62654;SDS011;48717;55.556;37.816;2023-12-28T05:23:44;8.52;;;4.80;;
62654;SDS011;48717;55.556;37.816;2023-12-28T05:26:11;10.52;;;4.43;;
62654;SDS011;48717;55.556;37.816;2023-12-28T05:28:38;8.70;;;4.47;;
62654;SDS011;48717;55.556;37.816;2023-12-28T05:31:06;10.18;;;3.85;;
62654;SDS011;48717;55.556;37.816;2023-12-28T05:33:33;8.55;;;4.65;;
62654;SDS011;48717;55.556;37.816;2023-12-28T05:36:00;9.63;;;3.42;;
62654;SDS011;48717;55.556;37.816;2023-12-28T05:38:28;7.28;;;3.63;;
62654;SDS011;48717;55.556;37.816;2023-12-28T05:40:57;7.45;;;4.28;;
62654;SDS011;48717;55.556;37.816;2023-12-28T05:43:24;7.13;;;3.95;;
62654;SDS011;48717;55.556;37.816;2023-12-28T05:45:51;13.40;;;6.30;;
62654;SDS011;48717;55.556;37.816;2023-12-28T05:48:19;9.35;;;4.30;;
62654;SDS011;48717;55.556;37.816;2023-12-28T05:50:47;7.57;;;4.18;;
62654;SDS011;48717;55.556;37.816;2023-12-28T05:53:14;4.45;;;2.60;;
62654;SDS011;48717;55.556;37.816;2023-12-28T05:55:41;5.38;;;2.75;;
62654;SDS011;48717;55.556;37.816;2023-12-28T05:58:09;5.80;;;3.72;;
62654;SDS011;48717;55.556;37.816;2023-12-28T06:00:36;6.53;;;3.97;;
62654;SDS011;48717;55.556;37.816;2023-12-28T06:03:05;6.18;;;3.20;;
62654;SDS011;48717;55.556;37.816;2023-12-28T06:05:32;5.72;;;3.60;;
62654;SDS011;48717;55.556;37.816;2023-12-28T06:08:00;6.75;;;3.95;;
62654;SDS011;48717;55.556;37.816;2023-12-28T06:10:27;5.95;;;3.30;;
62654;SDS011;48717;55.556;37.816;2023-12-28T06:12:55;5.93;;;3.22;;
62654;SDS011;48717;55.556;37.816;2023-12-28T06:15:23;5.30;;;3.40;;
62654;SDS011;48717;55.556;37.816;2023-12-28T06:17:50;5.22;;;3.13;;
62654;SDS011;48717;55.556;37.816;2023-12-28T06:20:18;6.93;;;3.20;;
62654;SDS011;48717;55.556;37.816;2023-12-28T06:22:46;4.88;;;3.22;;
62654;SDS011;48717;55.556;37.816;2023-12-28T06:25:16;4.25;;;2.60;;
62654;SDS011;48717;55.556;37.816;2023-12-28T06:27:43;7.50;;;3.25;;
62654;SDS011;48717;55.556;37.816;2023-12-28T06:30:11;6.13;;;3.40;;
62654;SDS011;48717;55.556;37.816;2023-12-28T06:32:38;6.15;;;3.20;;
62654;SDS011;48717;55.556;37.816;2023-12-28T06:35:06;7.18;;;3.40;;
62654;SDS011;48717;55.556;37.816;2023-12-28T06:37:34;5.40;;;3.00;;
62654;SDS011;48717;55.556;37.816;2023-12-28T06:40:01;6.72;;;3.35;;
62654;SDS011;48717;55.556;37.816;2023-12-28T06:42:30;6.25;;;3.45;;
62654;SDS011;48717;55.556;37.816;2023-12-28T06:44:57;6.15;;;3.10;;
62654;SDS011;48717;55.556;37.816;2023-12-28T06:47:24;6.38;;;3.10;;
62654;SDS011;48717;55.556;37.816;2023-12-28T06:49:52;5.03;;;3.10;;
62654;SDS011;48717;55.556;37.816;2023-12-28T06:52:19;7.40;;;3.22;;
62654;SDS011;48717;55.556;37.816;2023-12-28T06:54:50;5.25;;;2.92;;
62654;SDS011;48717;55.556;37.816;2023-12-28T06:57:18;5.22;;;3.40;;
62654;SDS011;48717;55.556;37.816;2023-12-28T06:59:45;5.20;;;3.58;;
62654;SDS011;48717;55.556;37.816;2023-12-28T07:02:13;5.22;;;3.08;;
62654;SDS011;48717;55.556;37.816;2023-12-28T07:04:40;5.88;;;3.45;;
62654;SDS011;48717;55.556;37.816;2023-12-28T07:07:07;3.60;;;2.83;;
62654;SDS011;48717;55.556;37.816;2023-12-28T07:09:36;3.97;;;2.60;;
62654;SDS011;48717;55.556;37.816;2023-12-28T07:12:04;5.22;;;3.00;;
62654;SDS011;48717;55.556;37.816;2023-12-28T07:14:31;4.78;;;3.20;;
62654;SDS011;48717;55.556;37.816;2023-12-28T07:16:59;4.75;;;3.03;;
62654;SDS011;48717;55.556;37.816;2023-12-28T07:19:27;4.80;;;3.00;;
62654;SDS011;48717;55.556;37.816;2023-12-28T07:21:55;5.22;;;3.28;;
62654;SDS011;48717;55.556;37.816;2023-12-28T07:24:23;4.47;;;2.80;;
62654;SDS011;48717;55.556;37.816;2023-12-28T07:26:50;3.85;;;2.42;;
62654;SDS011;48717;55.556;37.816;2023-12-28T07:29:17;5.15;;;3.03;;
62654;SDS011;48717;55.556;37.816;2023-12-28T07:31:45;6.63;;;3.50;;
62654;SDS011;48717;55.556;37.816;2023-12-28T07:34:14;4.95;;;3.30;;
62654;SDS011;48717;55.556;37.816;2023-12-28T07:36:41;4.13;;;3.05;;
62654;SDS011;48717;55.556;37.816;2023-12-28T07:39:10;5.40;;;2.90;;
62654;SDS011;48717;55.556;37.816;2023-12-28T07:41:37;4.43;;;2.80;;
62654;SDS011;48717;55.556;37.816;2023-12-28T07:44:05;4.18;;;2.90;;
62654;SDS011;48717;55.556;37.816;2023-12-28T07:46:33;4.80;;;2.75;;
62654;SDS011;48717;55.556;37.816;2023-12-28T07:49:00;4.07;;;2.80;;
62654;SDS011;48717;55.556;37.816;2023-12-28T07:51:28;4.00;;;2.70;;
62654;SDS011;48717;55.556;37.816;2023-12-28T07:53:55;5.15;;;3.03;;
62654;SDS011;48717;55.556;37.816;2023-12-28T07:56:23;4.88;;;2.88;;
62654;SDS011;48717;55.556;37.816;2023-12-28T07:58:51;5.47;;;3.30;;
62654;SDS011;48717;55.556;37.816;2023-12-28T08:01:19;4.00;;;3.10;;
62654;SDS011;48717;55.556;37.816;2023-12-28T08:03:47;5.40;;;3.22;;
62654;SDS011;48717;55.556;37.816;2023-12-28T08:06:14;4.85;;;3.38;;
62654;SDS011;48717;55.556;37.816;2023-12-28T08:08:42;7.32;;;3.08;;
62654;SDS011;48717;55.556;37.816;2023-12-28T08:11:10;4.50;;;3.20;;
62654;SDS011;48717;55.556;37.816;2023-12-28T08:13:39;7.38;;;3.92;;
62654;SDS011;48717;55.556;37.816;2023-12-28T08:16:06;7.30;;;3.50;;
62654;SDS011;48717;55.556;37.816;2023-12-28T08:18:34;7.00;;;3.70;;
62654;SDS011;48717;55.556;37.816;2023-12-28T08:21:04;5.55;;;3.00;;
62654;SDS011;48717;55.556;37.816;2023-12-28T08:23:35;6.38;;;3.00;;
62654;SDS011;48717;55.556;37.816;2023-12-28T08:26:04;6.00;;;3.42;;
62654;SDS011;48717;55.556;37.816;2023-12-28T09:02:58;4.25;;;2.83;;
62654;SDS011;48717;55.556;37.816;2023-12-28T09:05:26;3.85;;;2.60;;
62654;SDS011;48717;55.556;37.816;2023-12-28T09:07:53;6.07;;;3.22;;
62654;SDS011;48717;55.556;37.816;2023-12-28T09:10:20;4.50;;;2.95;;
62654;SDS011;48717;55.556;37.816;2023-12-28T09:12:48;3.83;;;2.47;;
62654;SDS011;48717;55.556;37.816;2023-12-28T09:15:15;4.90;;;3.08;;
62654;SDS011;48717;55.556;37.816;2023-12-28T09:17:43;4.53;;;2.85;;
62654;SDS011;48717;55.556;37.816;2023-12-28T09:20:11;6.32;;;2.90;;
62654;SDS011;48717;55.556;37.816;2023-12-28T09:22:39;4.63;;;2.55;;
62654;SDS011;48717;55.556;37.816;2023-12-28T09:25:07;4.43;;;2.78;;
62654;SDS011;48717;55.556;37.816;2023-12-28T09:27:34;4.78;;;3.00;;
62654;SDS011;48717;55.556;37.816;2023-12-28T09:30:02;1.95;;;1.42;;
62654;SDS011;48717;55.556;37.816;2023-12-28T09:32:31;4.55;;;2.83;;
62654;SDS011;48717;55.556;37.816;2023-12-28T09:34:58;4.60;;;2.55;;
62654;SDS011;48717;55.556;37.816;2023-12-28T09:37:27;5.38;;;3.13;;
62654;SDS011;48717;55.556;37.816;2023-12-28T09:39:54;5.28;;;3.50;;
62654;SDS011;48717;55.556;37.816;2023-12-28T09:42:25;5.43;;;3.15;;
62654;SDS011;48717;55.556;37.816;2023-12-28T09:44:56;13.20;;;6.50;;
62654;SDS011;48717;55.556;37.816;2023-12-28T09:47:23;7.15;;;4.07;;
62654;SDS011;48717;55.556;37.816;2023-12-28T09:49:53;9.15;;;4.97;;
62654;SDS011;48717;55.556;37.816;2023-12-28T09:52:20;6.15;;;3.30;;
62654;SDS011;48717;55.556;37.816;2023-12-28T09:54:47;8.00;;;4.10;;
62654;SDS011;48717;55.556;37.816;2023-12-28T09:57:14;7.82;;;4.05;;
62654;SDS011;48717;55.556;37.816;2023-12-28T09:59:42;8.57;;;4.05;;
62654;SDS011;48717;55.556;37.816;2023-12-28T10:02:11;7.35;;;4.07;;
62654;SDS011;48717;55.556;37.816;2023-12-28T10:04:39;5.05;;;3.13;;
62654;SDS011;48717;55.556;37.816;2023-12-28T10:07:06;7.63;;;3.83;;
62654;SDS011;48717;55.556;37.816;2023-12-28T10:09:33;7.93;;;4.50;;
62654;SDS011;48717;55.556;37.816;2023-12-28T10:12:01;6.90;;;4.18;;
62654;SDS011;48717;55.556;37.816;2023-12-28T10:14:31;6.82;;;3.53;;
62654;SDS011;48717;55.556;37.816;2023-12-28T10:19:29;6.15;;;3.97;;
62654;SDS011;48717;55.556;37.816;2023-12-28T10:21:56;7.85;;;3.90;;
62654;SDS011;48717;55.556;37.816;2023-12-28T10:24:24;8.07;;;3.70;;
62654;SDS011;48717;55.556;37.816;2023-12-28T10:26:52;6.95;;;3.70;;
62654;SDS011;48717;55.556;37.816;2023-12-28T10:29:20;5.95;;;3.40;;
62654;SDS011;48717;55.556;37.816;2023-12-28T10:31:47;7.15;;;3.35;;
62654;SDS011;48717;55.556;37.816;2023-12-28T10:34:18;4.65;;;3.08;;
62654;SDS011;48717;55.556;37.816;2023-12-28T10:36:46;6.43;;;3.65;;
62654;SDS011;48717;55.556;37.816;2023-12-28T10:39:20;4.57;;;2.97;;
62654;SDS011;48717;55.556;37.816;2023-12-28T10:41:50;6.18;;;3.42;;
62654;SDS011;48717;55.556;37.816;2023-12-28T10:44:22;4.95;;;3.20;;
62654;SDS011;48717;55.556;37.816;2023-12-28T10:46:52;5.63;;;3.42;;
62654;SDS011;48717;55.556;37.816;2023-12-28T10:49:28;4.40;;;3.10;;
62654;SDS011;48717;55.556;37.816;2023-12-28T10:52:00;5.55;;;3.10;;
62654;SDS011;48717;55.556;37.816;2023-12-28T10:54:47;4.30;;;2.58;;
62654;SDS011;48717;55.556;37.816;2023-12-28T10:57:39;5.43;;;3.08;;
62654;SDS011;48717;55.556;37.816;2023-12-28T11:00:13;5.00;;;2.88;;
62654;SDS011;48717;55.556;37.816;2023-12-28T11:02:44;4.85;;;3.15;;
62654;SDS011;48717;55.556;37.816;2023-12-28T11:05:13;4.85;;;3.15;;
62654;SDS011;48717;55.556;37.816;2023-12-28T11:07:42;4.63;;;2.90;;
62654;SDS011;48717;55.556;37.816;2023-12-28T11:10:10;5.35;;;3.10;;
62654;SDS011;48717;55.556;37.816;2023-12-28T11:12:40;5.40;;;3.50;;
62654;SDS011;48717;55.556;37.816;2023-12-28T11:15:08;5.13;;;3.28;;
62654;SDS011;48717;55.556;37.816;2023-12-28T11:17:38;5.03;;;3.10;;
62654;SDS011;48717;55.556;37.816;2023-12-28T11:20:08;4.05;;;2.60;;
62654;SDS011;48717;55.556;37.816;2023-12-28T11:22:37;5.00;;;3.08;;
62654;SDS011;48717;55.556;37.816;2023-12-28T11:25:05;4.80;;;2.90;;
62654;SDS011;48717;55.556;37.816;2023-12-28T11:27:36;6.30;;;3.13;;
62654;SDS011;48717;55.556;37.816;2023-12-28T11:30:04;6.32;;;3.15;;
62654;SDS011;48717;55.556;37.816;2023-12-28T11:32:32;6.43;;;3.33;;
62654;SDS011;48717;55.556;37.816;2023-12-28T11:35:01;5.90;;;3.30;;
62654;SDS011;48717;55.556;37.816;2023-12-28T11:37:29;6.80;;;3.15;;
62654;SDS011;48717;55.556;37.816;2023-12-28T11:39:58;5.60;;;2.70;;
62654;SDS011;48717;55.556;37.816;2023-12-28T11:42:47;5.50;;;3.38;;
62654;SDS011;48717;55.556;37.816;2023-12-28T11:45:21;4.20;;;2.65;;
62654;SDS011;48717;55.556;37.816;2023-12-28T11:48:02;7.32;;;3.55;;
62654;SDS011;48717;55.556;37.816;2023-12-28T11:50:31;5.60;;;3.05;;
62654;SDS011;48717;55.556;37.816;2023-12-28T11:53:00;4.68;;;2.85;;
62654;SDS011;48717;55.556;37.816;2023-12-28T11:55:28;5.50;;;3.10;;
62654;SDS011;48717;55.556;37.816;2023-12-28T11:57:55;7.47;;;3.40;;
62654;SDS011;48717;55.556;37.816;2023-12-28T12:00:23;5.82;;;3.33;;
62654;SDS011;48717;55.556;37.816;2023-12-28T12:02:53;6.18;;;2.85;;
62654;SDS011;48717;55.556;37.816;2023-12-28T12:05:24;5.03;;;3.00;;
62654;SDS011;48717;55.556;37.816;2023-12-28T12:07:51;6.47;;;3.42;;
62654;SDS011;48717;55.556;37.816;2023-12-28T12:10:19;6.70;;;3.30;;
62654;SDS011;48717;55.556;37.816;2023-12-28T12:12:46;3.70;;;2.20;;
62654;SDS011;48717;55.556;37.816;2023-12-28T12:15:13;7.15;;;3.00;;
62654;SDS011;48717;55.556;37.816;2023-12-28T12:17:42;5.88;;;3.42;;
62654;SDS011;48717;55.556;37.816;2023-12-28T12:20:10;6.38;;;3.53;;
62654;SDS011;48717;55.556;37.816;2023-12-28T12:22:38;5.25;;;3.30;;
62654;SDS011;48717;55.556;37.816;2023-12-28T12:25:06;6.43;;;3.50;;
62654;SDS011;48717;55.556;37.816;2023-12-28T12:27:38;5.50;;;3.35;;
62654;SDS011;48717;55.556;37.816;2023-12-28T12:30:08;5.65;;;3.38;;
62654;SDS011;48717;55.556;37.816;2023-12-28T12:32:36;11.23;;;2.92;;
62654;SDS011;48717;55.556;37.816;2023-12-28T12:35:10;4.95;;;2.88;;
62654;SDS011;48717;55.556;37.816;2023-12-28T12:37:38;6.70;;;3.42;;
62654;SDS011;48717;55.556;37.816;2023-12-28T12:40:06;5.03;;;2.72;;
62654;SDS011;48717;55.556;37.816;2023-12-28T12:42:34;4.50;;;2.47;;
62654;SDS011;48717;55.556;37.816;2023-12-28T12:45:02;4.55;;;3.05;;
62654;SDS011;48717;55.556;37.816;2023-12-28T12:47:34;5.47;;;3.20;;
62654;SDS011;48717;55.556;37.816;2023-12-28T12:50:03;4.95;;;2.75;;
62654;SDS011;48717;55.556;37.816;2023-12-28T12:52:31;4.70;;;2.70;;
62654;SDS011;48717;55.556;37.816;2023-12-28T12:55:00;5.65;;;3.13;;
62654;SDS011;48717;55.556;37.816;2023-12-28T12:57:29;2.65;;;1.90;;
62654;SDS011;48717;55.556;37.816;2023-12-28T12:59:57;3.28;;;2.03;;
62654;SDS011;48717;55.556;37.816;2023-12-28T13:02:24;2.40;;;1.63;;
62654;SDS011;48717;55.556;37.816;2023-12-28T13:07:23;1.60;;;1.25;;
62654;SDS011;48717;55.556;37.816;2023-12-28T13:09:50;2.85;;;1.90;;
62654;SDS011;48717;55.556;37.816;2023-12-28T13:12:18;2.63;;;1.52;;
62654;SDS011;48717;55.556;37.816;2023-12-28T13:14:45;3.65;;;2.25;;
62654;SDS011;48717;55.556;37.816;2023-12-28T13:17:13;4.63;;;2.67;;
62654;SDS011;48717;55.556;37.816;2023-12-28T13:19:40;2.92;;;2.17;;
62654;SDS011;48717;55.556;37.816;2023-12-28T13:22:07;3.22;;;1.88;;
62654;SDS011;48717;55.556;37.816;2023-12-28T13:24:35;3.15;;;1.98;;
62654;SDS011;48717;55.556;37.816;2023-12-28T13:27:02;6.80;;;3.25;;
62654;SDS011;48717;55.556;37.816;2023-12-28T13:29:29;4.65;;;2.60;;
62654;SDS011;48717;55.556;37.816;2023-12-28T13:31:57;4.45;;;2.50;;
62654;SDS011;48717;55.556;37.816;2023-12-28T13:34:24;2.50;;;1.65;;
62654;SDS011;48717;55.556;37.816;2023-12-28T13:36:52;2.65;;;1.90;;
62654;SDS011;48717;55.556;37.816;2023-12-28T13:39:21;4.00;;;2.28;;
62654;SDS011;48717;55.556;37.816;2023-12-28T13:41:49;3.45;;;2.10;;
62654;SDS011;48717;55.556;37.816;2023-12-28T13:44:16;3.20;;;2.17;;
62654;SDS011;48717;55.556;37.816;2023-12-28T13:46:44;3.28;;;1.85;;
62654;SDS011;48717;55.556;37.816;2023-12-28T13:49:11;4.28;;;2.28;;
62654;SDS011;48717;55.556;37.816;2023-12-28T13:51:39;2.70;;;2.13;;
62654;SDS011;48717;55.556;37.816;2023-12-28T13:54:06;4.50;;;2.45;;
62654;SDS011;48717;55.556;37.816;2023-12-28T13:56:33;4.55;;;2.50;;
62654;SDS011;48717;55.556;37.816;2023-12-28T13:59:01;4.22;;;2.40;;
62654;SDS011;48717;55.556;37.816;2023-12-28T14:01:28;3.47;;;2.05;;
62654;SDS011;48717;55.556;37.816;2023-12-28T14:03:56;4.40;;;2.47;;
62654;SDS011;48717;55.556;37.816;2023-12-28T14:06:24;5.30;;;2.47;;
62654;SDS011;48717;55.556;37.816;2023-12-28T14:08:51;6.40;;;3.25;;
62654;SDS011;48717;55.556;37.816;2023-12-28T14:11:18;4.82;;;2.33;;
62654;SDS011;48717;55.556;37.816;2023-12-28T14:13:46;4.13;;;2.42;;
62654;SDS011;48717;55.556;37.816;2023-12-28T14:16:13;4.50;;;2.78;;
62654;SDS011;48717;55.556;37.816;2023-12-28T14:18:40;3.97;;;2.17;;
62654;SDS011;48717;55.556;37.816;2023-12-28T14:21:09;3.97;;;2.38;;
62654;SDS011;48717;55.556;37.816;2023-12-28T14:23:39;3.97;;;2.50;;
62654;SDS011;48717;55.556;37.816;2023-12-28T14:26:13;3.30;;;2.28;;
62654;SDS011;48717;55.556;37.816;2023-12-28T14:28:42;5.47;;;2.47;;
62654;SDS011;48717;55.556;37.816;2023-12-28T14:31:11;8.45;;;3.63;;
62654;SDS011;48717;55.556;37.816;2023-12-28T14:33:39;9.10;;;2.88;;
62654;SDS011;48717;55.556;37.816;2023-12-28T14:36:30;3.80;;;2.30;;
62654;SDS011;48717;55.556;37.816;2023-12-28T14:39:06;4.85;;;2.08;;
62654;SDS011;48717;55.556;37.816;2023-12-28T14:41:35;4.05;;;2.08;;
62654;SDS011;48717;55.556;37.816;2023-12-28T14:44:07;4.72;;;2.38;;
62654;SDS011;48717;55.556;37.816;2023-12-28T14:46:34;4.43;;;2.65;;
62654;SDS011;48717;55.556;37.816;2023-12-28T14:49:05;4.65;;;2.72;;
62654;SDS011;48717;55.556;37.816;2023-12-28T14:51:32;3.72;;;2.10;;
62654;SDS011;48717;55.556;37.816;2023-12-28T14:54:00;4.55;;;2.65;;
62654;SDS011;48717;55.556;37.816;2023-12-28T14:56:27;5.40;;;2.70;;
62654;SDS011;48717;55.556;37.816;2023-12-28T14:59:13;3.95;;;2.60;;
62654;SDS011;48717;55.556;37.816;2023-12-28T15:01:45;5.10;;;3.58;;
62654;SDS011;48717;55.556;37.816;2023-12-28T15:04:12;6.63;;;3.00;;
62654;SDS011;48717;55.556;37.816;2023-12-28T15:06:40;5.60;;;3.03;;
62654;SDS011;48717;55.556;37.816;2023-12-28T15:09:08;4.50;;;2.35;;
62654;SDS011;48717;55.556;37.816;2023-12-28T15:11:37;5.60;;;3.35;;
62654;SDS011;48717;55.556;37.816;2023-12-28T15:14:14;5.90;;;2.85;;
62654;SDS011;48717;55.556;37.816;2023-12-28T15:16:44;5.00;;;2.55;;
62654;SDS011;48717;55.556;37.816;2023-12-28T15:19:12;5.97;;;3.17;;
62654;SDS011;48717;55.556;37.816;2023-12-28T15:21:40;5.05;;;3.10;;